新東京国際空港の過去48時間の天気

新東京国際空港 (Tokyo/New Tokyo Intl)

現在時刻: 1/19 20:32 JST (1/19 11:32 UTC) 以下の時間は現地時間です。

過去48時間のMETAR気象情報
時間 風向 風速(m/s) 視程 気温(℃) 湿度(%) 気圧(hPa) 天気現象
19 20:00 1 10km以上 3 65 1019
19 19:30 1 10km以上 3 65 1019
19 19:00 1 10km以上 3 65 1019
19 18:30 南西 2 10km以上 3 60 1019
19 18:00 南西 2 10km以上 4 56 1018
19 17:30 南南西 2 10km以上 5 52 1018
19 17:00 不定 1 10km以上 8 39 1018
19 16:30 西 2 10km以上 10 27 1018
19 16:00 西南西 3 10km以上 11 28 1018
19 15:30 西 3 10km以上 11 24 1018
19 15:00 西北西 3 10km以上 11 22 1018
19 14:30 北西 5 10km以上 11 24 1018
19 14:00 北西 5 10km以上 11 22 1018
19 13:30 北西 6 10km以上 11 22 1018
19 13:00 北西 6 10km以上 11 22 1019
19 12:30 北西 6 10km以上 11 24 1019
19 12:00 北西 8 10km以上 10 27 1019
19 11:30 西北西 7 10km以上 9 29 1020
19 11:00 西北西 7 10km以上 10 27 1020
19 10:30 西北西 7 10km以上 9 29 1021
19 10:00 西北西 7 10km以上 8 34 1021
19 09:30 西北西 6 10km以上 8 34 1021
19 09:00 西北西 6 10km以上 7 34 1021
19 08:30 北西 5 10km以上 6 36 1021
19 08:00 西北西 4 10km以上 5 38 1021
19 07:30 西北西 5 10km以上 5 36 1021
19 07:00 西北西 4 10km以上 3 44 1020
19 06:30 西 3 10km以上 3 44 1020
19 06:00 西北西 2 10km以上 2 48 1020
19 05:30 西 2 10km以上 1 55 1020
19 05:00 西 2 10km以上 1 55 1019
19 04:30 西 2 10km以上 1 55 1019
19 04:00 西 3 10km以上 2 51 1019
19 03:30 西北西 3 10km以上 3 48 1019
19 03:00 西北西 5 10km以上 4 45 1019
19 02:30 西北西 5 10km以上 3 48 1019
19 02:00 西北西 5 10km以上 3 48 1019
19 01:30 西 4 10km以上 3 48 1019
19 01:00 西 3 10km以上 3 44 1019
19 00:30 西 2 10km以上 3 44 1019
19 00:00 西 4 10km以上 3 44 1018
18 23:30 西北西 5 10km以上 4 41 1018
18 23:00 西北西 5 10km以上 4 41 1019
18 22:30 西 5 10km以上 4 38 1019
18 22:00 西 5 10km以上 4 38 1018
18 21:30 西北西 5 10km以上 4 41 1018
18 21:00 西北西 5 10km以上 4 38 1018
18 20:30 西北西 4 10km以上 4 41 1018
18 20:00 西 3 10km以上 4 38 1018
18 19:30 西北西 3 10km以上 4 38 1018
18 19:00 北西 4 10km以上 4 41 1018
18 18:30 北西 4 10km以上 4 38 1017
18 18:00 北西 5 10km以上 5 36 1017
18 17:30 北西 6 10km以上 6 33 1017
18 17:00 北西 4 10km以上 6 31 1016
18 16:30 北西 6 10km以上 7 26 1016
18 16:00 北西 7 10km以上 7 29 1016
18 15:34 北西 8 10km以上 8 25 1016
18 15:00 北西 9 10km以上 8 23 1015
18 14:45 北西 9 10km以上 8 25 1015
18 14:30 北西 10 10km以上 8 23 1015 高い風塵
18 14:00 北西 8 10km以上 8 25 1015
18 13:37 北西 8 10km以上 8 25 1015
18 13:30 北西 9 10km以上 8 25 1015 高い風塵
18 13:00 西北西 8 10km以上 8 27 1015
18 12:30 西北西 6 10km以上 8 27 1015
18 12:05 北西 8 10km以上 8 27 1016
18 12:00 北西 8 10km以上 8 29 1016
18 11:36 西北西 8 10km以上 7 29 1016
18 11:30 西北西 7 10km以上 7 29 1016
18 11:00 西北西 8 10km以上 7 31 1016
18 10:48 西北西 8 10km以上 7 29 1016
18 10:30 西北西 6 10km以上 7 31 1017
18 10:00 西北西 6 10km以上 6 33 1017
18 09:30 北西 7 10km以上 5 33 1017
18 09:00 西北西 7 10km以上 5 33 1017
18 08:30 西北西 7 10km以上 4 35 1016
18 08:00 西北西 5 10km以上 4 35 1016
18 07:30 北西 6 10km以上 3 38 1016
18 07:00 北西 7 10km以上 2 41 1015
18 06:30 北西 9 10km以上 3 38 1014
18 06:00 北北西 8 10km以上 3 38 1014
18 05:30 北北西 7 10km以上 2 41 1013
18 05:00 北北西 7 10km以上 3 38 1013
18 04:30 北北西 4 10km以上 1 55 1013
18 04:00 北北西 5 10km以上 2 51 1012
18 03:30 北西 6 10km以上 4 45 1012
18 03:00 北西 7 10km以上 5 42 1011
18 02:30 北西 8 10km以上 5 42 1011
18 02:00 北西 7 10km以上 6 39 1010
18 01:30 北西 7 10km以上 6 45 1010
18 01:00 北西 7 10km以上 6 52 1009
18 00:30 北西 6 10km以上 6 52 1009
18 00:00 北西 6 10km以上 6 49 1008
17 23:30 北西 5 10km以上 6 52 1008
17 23:00 西 2 10km以上 4 65 1008
17 22:30 西 2 10km以上 5 52 1008
17 22:00 西北西 3 10km以上 6 61 1008
17 21:30 北西 4 10km以上 6 61 1008
17 21:00 西北西 3 10km以上 5 70 1008
RJAA 191100Z 17002KT 9999 FEW030 03/M03 Q1019 BECMG 26005KT
RJAA 191030Z 19002KT 9999 FEW030 03/M03 Q1019 BECMG 26005KT
RJAA 191000Z 19002KT 9999 FEW030 03/M03 Q1019 BECMG 28005KT RMK 1CU030 A3010
RJAA 190930Z 23004KT 9999 FEW030 03/M04 Q1019 BECMG 28005KT
RJAA 190900Z 22003KT 9999 FEW030 04/M04 Q1018 BECMG 28005KT RMK 1CU030 A3009
RJAA 190830Z 21003KT 9999 FEW030 05/M04 Q1018 BECMG 28005KT
RJAA 190800Z VRB02KT 9999 FEW030 08/M05 Q1018 NOSIG RMK 1CU030 A3008
RJAA 190730Z 27003KT 240V320 9999 FEW030 10/M08 Q1018 NOSIG RMK 1CU030 A3008
RJAA 190700Z 25005KT 210V300 9999 FEW030 11/M07 Q1018 NOSIG RMK 1CU030 A3008
RJAA 190630Z 27005KT 210V330 9999 FEW030 11/M09 Q1018 NOSIG RMK 1CU030 A3008
RJAA 190600Z 29005KT 240V330 9999 FEW030 11/M10 Q1018 NOSIG RMK 1CU030 A3008
RJAA 190530Z 32009KT 280V350 9999 FEW030 11/M09 Q1018 NOSIG RMK 1CU030 A3008
RJAA 190500Z 32010KT 280V340 9999 FEW030 11/M10 Q1018 NOSIG RMK 1CU030 A3008
RJAA 190430Z 31012KT 9999 FEW030 11/M10 Q1018 NOSIG RMK 1CU030 A3008
RJAA 190400Z 31012KT 260V340 9999 FEW030 11/M10 Q1019 NOSIG RMK 1CU030 A3010
RJAA 190330Z 32012KT 9999 FEW030 11/M09 Q1019 WS R34R NOSIG
RJAA 190300Z 32016KT 9999 FEW030 10/M08 Q1019 NOSIG RMK 1CU030 A3011
RJAA 190230Z 30014KT 260V330 9999 FEW030 09/M08 Q1020 NOSIG RMK 1CU030 A3013
RJAA 190200Z 30013KT 270V340 9999 FEW030 10/M08 Q1020 WS R34R NOSIG
RJAA 190130Z 30013KT 260V330 9999 FEW030 09/M08 Q1021 WS R34R NOSIG
RJAA 190100Z 30014G24KT 260V340 9999 FEW030 08/M07 Q1021 NOSIG RMK 1CU030 A3016
RJAA 190030Z 30012G23KT 260V340 9999 FEW030 08/M07 Q1021 NOSIG RMK 1CU030 A3016
RJAA 190000Z 30011KT 250V340 9999 FEW030 07/M08 Q1021 NOSIG RMK 1CU030 A3017
RJAA 182330Z 31009KT 270V350 9999 FEW030 06/M08 Q1021 NOSIG RMK 1CU030 A3016
RJAA 182300Z 29008KT 270V330 9999 FEW030 05/M08 Q1021 NOSIG RMK 1CU030 A3016
RJAA 182230Z 29009KT 260V330 9999 FEW030 05/M09 Q1021 NOSIG RMK 1CU030 A3016
RJAA 182200Z 30007G17KT 260V340 9999 FEW030 03/M08 Q1020 NOSIG RMK 1CU030 A3015
RJAA 182130Z 28006KT 250V320 9999 FEW030 03/M08 Q1020 NOSIG RMK 1CU030 A3014
RJAA 182100Z 29004KT 250V330 9999 FEW030 02/M08 Q1020 NOSIG RMK 1CU030 A3013
RJAA 182030Z 27003KT 240V310 CAVOK 01/M07 Q1020 NOSIG RMK A3012
RJAA 182000Z 27004KT 230V310 9999 FEW030 01/M07 Q1019 NOSIG RMK 1CU030 A3012
RJAA 181930Z 27003KT 240V300 9999 FEW030 01/M07 Q1019 NOSIG RMK 1CU030 A3011
RJAA 181900Z 26005KT CAVOK 02/M07 Q1019 NOSIG RMK A3011
RJAA 181830Z 29006KT CAVOK 03/M07 Q1019 NOSIG RMK A3010
RJAA 181800Z 30009KT 260V330 CAVOK 04/M07 Q1019 NOSIG RMK A3010
RJAA 181730Z 30009KT CAVOK 03/M07 Q1019 NOSIG RMK A3010
RJAA 181700Z 29009KT 240V320 CAVOK 03/M07 Q1019 NOSIG RMK A3010
RJAA 181630Z 28007KT 250V310 CAVOK 03/M07 Q1019 NOSIG RMK A3010
RJAA 181600Z 28006KT 240V310 CAVOK 03/M08 Q1019 NOSIG RMK A3009
RJAA 181530Z 27004KT 240V310 CAVOK 03/M08 Q1019 NOSIG RMK A3009
RJAA 181500Z 28007KT 240V310 CAVOK 03/M08 Q1018 NOSIG RMK A3008
RJAA 181430Z 29009KT 260V320 CAVOK 04/M08 Q1018 NOSIG RMK A3008
RJAA 181400Z 29010KT 260V320 CAVOK 04/M08 Q1019 NOSIG RMK A3009
RJAA 181330Z 28009KT 250V320 CAVOK 04/M09 Q1019 NOSIG RMK A3009
RJAA 181300Z 28009KT 250V320 CAVOK 04/M09 Q1018 NOSIG RMK A3009
RJAA 181230Z 29010KT CAVOK 04/M08 Q1018 NOSIG RMK A3008
RJAA 181200Z 30010KT 260V320 CAVOK 04/M09 Q1018 NOSIG RMK A3008
RJAA 181130Z 29007KT CAVOK 04/M08 Q1018 NOSIG RMK A3007
RJAA 181100Z 27006KT 240V300 CAVOK 04/M09 Q1018 NOSIG RMK A3007
RJAA 181030Z 30006KT CAVOK 04/M09 Q1018 NOSIG RMK A3006
RJAA 181000Z 31007KT CAVOK 04/M08 Q1018 NOSIG RMK A3006
RJAA 180930Z 31007KT CAVOK 04/M09 Q1017 NOSIG RMK A3005
RJAA 180900Z 32009KT 9999 FEW030 05/M09 Q1017 NOSIG RMK 1CU030 A3005
RJAA 180830Z 32011KT 9999 FEW030 06/M09 Q1017 NOSIG RMK 1CU030 A3004
RJAA 180800Z 32008KT 290V360 9999 FEW030 06/M10 Q1016 NOSIG RMK 1CU030 A3002
RJAA 180730Z 32012G22KT 9999 FEW030 07/M11 Q1016 NOSIG RMK 1CU030 A3002
RJAA 180700Z 32014KT 9999 FEW030 07/M10 Q1016 TEMPO 32015G25KT RMK 1CU030 A3001
RJAA 180634Z 31015G25KT 9999 FEW030 08/M11 Q1016 WS R34R RMK 1CU030 A3000
RJAA 180600Z 32017KT 9999 FEW030 08/M12 Q1015 TEMPO 31016G28KT RMK 1CU030 A2999
RJAA 180545Z 32018G28KT 9999 FEW030 08/M11 Q1015 RMK 1CU030 A2998
RJAA 180530Z 32019KT 9999 BLDU FEW030 08/M12 Q1015 TEMPO 31018G28KT
RJAA 180500Z 32016G27KT 9999 FEW030 08/M11 Q1015 WS R34R NOSIG RMK 1CU030 A2999
RJAA 180437Z 31016G26KT 270V340 9999 FEW030 08/M11 Q1015 RMK 1CU030 A2998
RJAA 180430Z 31017G30KT 9999 BLDU FEW030 08/M11 Q1015 NOSIG RMK 1CU030 A2998 5000E
RJAA 180400Z 30015G25KT 260V330 9999 FEW030 08/M10 Q1015 WS R34R NOSIG
RJAA 180330Z 30012G25KT 250V350 9999 FEW030 08/M10 Q1015 WS R34R NOSIG
RJAA 180305Z 31015G25KT 270V340 9999 FEW030 08/M10 Q1016 WS R34R RMK 1CU030 A3000
RJAA 180300Z 31015KT 270V340 9999 FEW030 08/M09 Q1016 TEMPO 31016G28KT RMK 1CU030 A3001
RJAA 180236Z 30015G27KT 260V330 9999 FEW030 07/M10 Q1016 WS R34R RMK 1CU030 A3001
RJAA 180230Z 30014KT 260V330 9999 FEW030 07/M10 Q1016 TEMPO 31016G28KT RMK 1CU030 A3002 WS PS MS 15KT OBS AT 0211Z ON FNA RWY34R 3400FT IN DES A333
RJAA 180200Z 30015G26KT 250V330 9999 FEW030 07/M09 Q1016 NOSIG RMK 1CU030 A3003
RJAA 180148Z 30015G25KT 260V330 9999 FEW030 07/M10 Q1016 WS R34R RMK 1CU030 A3003
RJAA 180130Z 30012KT 270V330 9999 FEW030 07/M09 Q1017 TEMPO 31016G28KT RMK 1CU030 A3003
RJAA 180100Z 30012KT 250V330 9999 FEW030 06/M09 Q1017 TEMPO 31016G28KT
RJAA 180030Z 31013G24KT 260V350 9999 FEW030 05/M10 Q1017 NOSIG RMK 1CU030 A3005
RJAA 180000Z 30013G24KT 260V330 9999 FEW030 05/M10 Q1017 NOSIG RMK 1CU030 A3004
RJAA 172330Z 29014G24KT 250V320 9999 FEW030 04/M10 Q1016 NOSIG RMK 1CU030 A3003
RJAA 172300Z 29010KT 260V320 9999 FEW030 04/M10 Q1016 NOSIG RMK 1CU030 A3003
RJAA 172230Z 31011KT 270V340 9999 FEW030 03/M10 Q1016 NOSIG RMK 1CU030 A3001
RJAA 172200Z 32014KT 9999 FEW030 02/M10 Q1015 NOSIG RMK 1CU030 A2999
RJAA 172130Z 32017G27KT 9999 FEW030 03/M10 Q1014 NOSIG RMK 1CU030 A2997
RJAA 172100Z 33015KT 9999 FEW030 03/M10 Q1014 NOSIG RMK 1CU030 A2995
RJAA 172030Z 33013KT 9999 FEW030 02/M10 Q1013 NOSIG RMK 1CU030 A2994
RJAA 172000Z 33013KT 9999 FEW030 03/M10 Q1013 NOSIG RMK 1CU030 A2992
RJAA 171930Z 33008KT 9999 FEW030 01/M07 Q1013 NOSIG RMK 1CU030 A2991
RJAA 171900Z 34010KT 9999 FEW030 02/M07 Q1012 NOSIG RMK 1CU030 A2990
RJAA 171830Z 32011KT 9999 FEW030 04/M07 Q1012 NOSIG RMK 1CU030 A2989
RJAA 171800Z 32013KT 9999 FEW030 05/M07 Q1011 NOSIG RMK 1CU030 A2987
RJAA 171730Z 32016G26KT 9999 FEW030 05/M07 Q1011 NOSIG RMK 1CU030 A2986
RJAA 171700Z 31013G23KT 9999 FEW030 06/M07 Q1010 NOSIG RMK 1CU030 A2984
RJAA 171630Z 31014KT 9999 FEW030 06/M05 Q1010 NOSIG RMK 1CU030 A2982
RJAA 171600Z 31013KT 9999 FEW030 06/M03 Q1009 NOSIG RMK 1CU030 A2981
RJAA 171530Z 31011KT 9999 FEW030 06/M03 Q1009 NOSIG RMK 1CU030 A2980
RJAA 171500Z 32011KT 9999 FEW030 06/M04 Q1008 NOSIG RMK 1CU030 A2979
RJAA 171430Z 31009KT 9999 FEW030 06/M03 Q1008 NOSIG RMK 1CU030 A2979
RJAA 171400Z 26004KT 9999 FEW030 04/M02 Q1008 NOSIG RMK 1CU030 A2979
RJAA 171330Z 28003KT 220V320 9999 FEW030 05/M04 Q1008 NOSIG RMK 1CU030 A2979
RJAA 171300Z 30006KT 9999 FEW030 06/M01 Q1008 NOSIG RMK 1CU030 A2978
RJAA 171230Z 31007KT 9999 FEW030 06/M01 Q1008 NOSIG RMK 1CU030 A2978
RJAA 171200Z 30005KT 9999 FEW030 05/00 Q1008 NOSIG RMK 1CU030 A2977